createdAt,value
2023-05-05T00:02:09.368Z,101499.19
2023-05-05T00:04:36.809Z,101498.16
2023-05-05T00:07:03.897Z,101497.34
2023-05-05T00:09:31.136Z,101505.06
2023-05-05T00:11:58.226Z,101502.94
2023-05-05T00:14:25.516Z,101506.78
2023-05-05T00:16:52.673Z,101503.56
2023-05-05T00:19:19.900Z,101488.53
2023-05-05T00:21:46.977Z,101494.00
2023-05-05T00:24:14.066Z,101492.09
2023-05-05T00:26:41.177Z,101486.59
2023-05-05T00:29:11.476Z,101492.88
2023-05-05T00:31:38.840Z,101483.06
2023-05-05T00:34:06.516Z,101477.88
2023-05-05T00:36:33.730Z,101481.94
2023-05-05T00:39:01.273Z,101480.63
2023-05-05T00:41:28.331Z,101484.47
2023-05-05T00:43:55.526Z,101480.75
2023-05-05T00:46:27.259Z,101486.22
2023-05-05T00:48:54.946Z,101493.63
2023-05-05T00:51:24.081Z,101486.31
2023-05-05T00:53:51.825Z,101481.97
2023-05-05T00:56:21.964Z,101472.16
2023-05-05T00:58:49.871Z,101471.81
2023-05-05T01:01:18.222Z,101473.16
2023-05-05T01:03:45.734Z,101469.88
2023-05-05T01:06:18.498Z,101476.50
2023-05-05T01:09:02.186Z,101471.34
2023-05-05T01:11:56.796Z,101469.59
2023-05-05T01:14:36.092Z,101464.63
2023-05-05T01:17:26.370Z,101456.72
2023-05-05T01:20:06.028Z,101451.66
2023-05-05T01:22:45.963Z,101447.59
2023-05-05T01:25:44.947Z,101457.22
2023-05-05T01:28:24.196Z,101456.75
2023-05-05T01:31:23.714Z,101455.94
2023-05-05T01:33:58.522Z,101455.41
2023-05-05T01:36:32.966Z,101458.16
2023-05-05T01:39:02.598Z,101455.75
2023-05-05T01:41:41.268Z,101459.28
2023-05-05T01:44:11.272Z,101441.53
2023-05-05T01:46:38.564Z,101452.56
2023-05-05T01:49:10.179Z,101451.78
2023-05-05T01:51:39.111Z,101458.16
2023-05-05T01:54:08.682Z,101454.91
2023-05-05T01:56:39.481Z,101459.06
2023-05-05T01:59:07.549Z,101467.59
2023-05-05T02:01:39.681Z,101460.50
2023-05-05T02:04:10.045Z,101470.09
2023-05-05T02:06:39.603Z,101463.91
2023-05-05T02:09:11.856Z,101464.72
2023-05-05T02:11:40.853Z,101462.28
2023-05-05T02:14:09.484Z,101459.84
2023-05-05T02:16:38.802Z,101467.25
2023-05-05T02:19:06.456Z,101466.44
2023-05-05T02:21:34.534Z,101465.91
2023-05-05T02:24:02.358Z,101473.31
2023-05-05T02:26:34.019Z,101472.50
2023-05-05T02:29:17.020Z,101477.38
2023-05-05T02:31:53.583Z,101468.56
2023-05-05T02:34:27.757Z,101472.91
2023-05-05T02:36:58.893Z,101467.75
2023-05-05T02:39:46.136Z,101469.69
2023-05-05T02:42:22.036Z,101459.84
2023-05-05T02:44:53.984Z,101471.69
2023-05-05T02:47:21.548Z,101466.84
2023-05-05T02:49:51.592Z,101474.75
2023-05-05T02:52:18.814Z,101472.03
2023-05-05T02:54:46.623Z,101466.03
2023-05-05T02:57:20.916Z,101464.19
2023-05-05T03:00:20.943Z,101465.09
2023-05-05T03:03:16.614Z,101467.03
2023-05-05T03:06:05.579Z,101460.22
2023-05-05T03:08:44.401Z,101464.69
2023-05-05T03:11:21.857Z,101461.97
2023-05-05T03:13:55.456Z,101460.34
2023-05-05T03:16:26.654Z,101460.94
2023-05-05T03:18:55.667Z,101465.59
2023-05-05T03:21:23.888Z,101458.22
2023-05-05T03:23:51.208Z,101458.00
2023-05-05T03:26:20.845Z,101457.78
2023-05-05T03:28:48.115Z,101464.34
2023-05-05T03:31:28.532Z,101457.47
2023-05-05T03:33:58.891Z,101455.28
2023-05-05T03:36:30.532Z,101446.22
2023-05-05T03:38:59.012Z,101455.06
2023-05-05T03:41:30.296Z,101463.03
2023-05-05T03:43:57.472Z,101465.75
2023-05-05T03:46:25.385Z,101454.03
2023-05-05T03:48:57.216Z,101465.16
2023-05-05T03:51:27.028Z,101462.16
2023-05-05T03:53:54.804Z,101458.88
2023-05-05T03:56:22.606Z,101463.25
2023-05-05T03:58:51.855Z,101461.03
2023-05-05T04:01:18.964Z,101464.88
2023-05-05T04:03:46.350Z,101476.22
2023-05-05T04:06:13.542Z,101481.63
2023-05-05T04:08:41.635Z,101474.22
2023-05-05T04:11:08.729Z,101482.09
2023-05-05T04:13:36.872Z,101475.31
2023-05-05T04:16:04.398Z,101482.69
2023-05-05T04:18:31.963Z,101486.56
2023-05-05T04:20:59.558Z,101490.91
2023-05-05T04:23:26.843Z,101493.34
2023-05-05T04:25:54.117Z,101490.50
2023-05-05T04:28:22.193Z,101480.91
2023-05-05T04:30:49.687Z,101483.25
2023-05-05T04:33:16.869Z,101484.84
2023-05-05T04:35:45.127Z,101481.22
2023-05-05T04:38:12.848Z,101477.50
2023-05-05T04:40:43.788Z,101483.41
2023-05-05T04:43:11.576Z,101484.13
2023-05-05T04:45:39.090Z,101483.72
2023-05-05T04:48:06.832Z,101477.22
2023-05-05T04:50:34.163Z,101478.94
2023-05-05T04:53:01.168Z,101490.28
2023-05-05T04:55:28.670Z,101486.50
2023-05-05T04:57:55.842Z,101495.13
2023-05-05T05:00:24.301Z,101491.47
2023-05-05T05:02:52.739Z,101495.88
2023-05-05T05:05:20.048Z,101493.66
2023-05-05T05:07:47.268Z,101492.84
2023-05-05T05:10:14.973Z,101494.72
2023-05-05T05:12:42.223Z,101498.50
2023-05-05T05:15:10.190Z,101498.88
2023-05-05T05:17:37.441Z,101490.81
2023-05-05T05:20:06.406Z,101493.44
2023-05-05T05:22:35.061Z,101496.69
2023-05-05T05:25:03.241Z,101508.53
2023-05-05T05:27:30.783Z,101509.72
2023-05-05T05:29:58.411Z,101501.97
2023-05-05T05:32:26.554Z,101507.03
2023-05-05T05:34:53.795Z,101504.84
2023-05-05T05:37:21.658Z,101504.19
2023-05-05T05:39:52.446Z,101510.75
2023-05-05T05:42:21.368Z,101505.97
2023-05-05T05:44:48.928Z,101513.91
2023-05-05T05:47:16.199Z,101506.41
2023-05-05T05:49:43.500Z,101514.09
2023-05-05T05:52:11.269Z,101506.94
2023-05-05T05:54:39.327Z,101514.34
2023-05-05T05:57:07.538Z,101504.16
2023-05-05T05:59:34.639Z,101503.78
2023-05-05T06:02:02.270Z,101515.88
2023-05-05T06:04:31.094Z,101513.13
2023-05-05T06:06:59.093Z,101515.44
2023-05-05T06:09:26.297Z,101515.44
2023-05-05T06:11:54.826Z,101507.22
2023-05-05T06:14:21.858Z,101510.75
2023-05-05T06:16:49.107Z,101516.66
2023-05-05T06:19:19.608Z,101510.00
2023-05-05T06:21:46.848Z,101515.66
2023-05-05T06:24:14.016Z,101524.56
2023-05-05T06:26:41.908Z,101521.22
2023-05-05T06:29:10.509Z,101529.03
2023-05-05T06:31:39.385Z,101519.78
2023-05-05T06:34:06.514Z,101526.09
2023-05-05T06:36:33.617Z,101510.06
2023-05-05T06:39:00.730Z,101508.56
2023-05-05T06:41:28.200Z,101517.97
2023-05-05T06:43:55.255Z,101521.06
2023-05-05T06:46:22.428Z,101531.84
2023-05-05T06:48:49.619Z,101524.56
2023-05-05T06:51:16.824Z,101530.22
2023-05-05T06:53:43.899Z,101521.22
2023-05-05T06:56:11.701Z,101529.44
2023-05-05T06:58:38.720Z,101529.72
2023-05-05T07:01:06.061Z,101520.25
2023-05-05T07:03:33.209Z,101531.72
2023-05-05T07:06:00.564Z,101520.38
2023-05-05T07:08:27.607Z,101527.53
2023-05-05T07:10:54.679Z,101532.59
2023-05-05T07:13:21.799Z,101519.84
2023-05-05T07:15:49.728Z,101522.44
2023-05-05T07:18:17.354Z,101521.69
2023-05-05T07:20:44.851Z,101520.78
2023-05-05T07:23:12.010Z,101513.94
2023-05-05T07:25:39.310Z,101520.31
2023-05-05T07:28:06.704Z,101521.94
2023-05-05T07:30:33.775Z,101522.13
2023-05-05T07:33:00.814Z,101528.19
2023-05-05T07:35:28.026Z,101525.22
2023-05-05T07:37:55.026Z,101518.13
2023-05-05T07:40:22.357Z,101522.72
2023-05-05T07:42:49.387Z,101527.38
2023-05-05T07:45:16.480Z,101520.44
2023-05-05T07:47:43.628Z,101519.97
2023-05-05T07:50:11.507Z,101518.66
2023-05-05T07:52:48.446Z,101517.81
2023-05-05T07:55:21.193Z,101525.25
2023-05-05T07:57:49.784Z,101511.88
2023-05-05T08:00:19.629Z,101511.09
2023-05-05T08:02:48.089Z,101513.75
2023-05-05T08:05:15.537Z,101517.38
2023-05-05T08:07:42.853Z,101514.31
2023-05-05T08:10:12.172Z,101512.63
2023-05-05T08:12:41.581Z,101514.03
2023-05-05T08:15:09.175Z,101527.38
2023-05-05T08:17:56.311Z,101524.44
2023-05-05T08:20:28.624Z,101524.88
2023-05-05T08:22:55.830Z,101522.06
2023-05-05T08:25:22.983Z,101525.19
2023-05-05T08:27:50.070Z,101525.19
2023-05-05T08:30:20.989Z,101529.19
2023-05-05T08:32:48.443Z,101524.44
2023-05-05T08:35:15.494Z,101525.22
2023-05-05T08:37:42.714Z,101526.00
2023-05-05T08:40:14.307Z,101524.22
2023-05-05T08:42:42.299Z,101515.06
2023-05-05T08:45:11.109Z,101514.84
2023-05-05T08:47:39.450Z,101510.84
2023-05-05T08:50:10.265Z,101511.94
2023-05-05T08:52:44.559Z,101523.47
2023-05-05T08:55:27.473Z,101524.75
2023-05-05T08:58:01.231Z,101520.16
2023-05-05T09:00:28.814Z,101522.22
2023-05-05T09:03:01.634Z,101531.97
2023-05-05T09:05:29.268Z,101539.38
2023-05-05T09:07:56.559Z,101539.03
2023-05-05T09:10:24.922Z,101538.63
2023-05-05T09:12:52.166Z,101529.72
2023-05-05T09:15:19.309Z,101537.91
2023-05-05T09:17:47.244Z,101532.84
2023-05-05T09:20:15.228Z,101536.06
2023-05-05T09:22:47.374Z,101538.81
2023-05-05T09:25:16.488Z,101550.66
2023-05-05T09:27:50.345Z,101550.16
2023-05-05T09:30:25.100Z,101564.31
2023-05-05T09:32:54.826Z,101557.97
2023-05-05T09:35:23.412Z,101563.91
2023-05-05T09:37:50.630Z,101560.84
2023-05-05T09:40:19.527Z,101568.75
2023-05-05T09:42:47.550Z,101567.38
2023-05-05T09:45:17.820Z,101569.44
2023-05-05T09:47:49.473Z,101567.91
2023-05-05T09:50:19.026Z,101573.59
2023-05-05T09:52:56.443Z,101560.22
2023-05-05T09:55:24.292Z,101568.34
2023-05-05T09:57:51.975Z,101557.91
2023-05-05T10:00:19.596Z,101557.00
2023-05-05T10:02:47.396Z,101563.00
2023-05-05T10:05:19.079Z,101553.75
2023-05-05T10:07:47.892Z,101555.31
2023-05-05T10:10:17.374Z,101559.66
2023-05-05T10:12:47.674Z,101563.31
2023-05-05T10:15:16.233Z,101562.09
2023-05-05T10:18:05.128Z,101562.00
2023-05-05T10:20:38.344Z,101560.78
2023-05-05T10:23:08.448Z,101549.94
2023-05-05T10:25:42.725Z,101553.13
2023-05-05T10:28:16.202Z,101556.06
2023-05-05T10:30:48.922Z,101548.88
2023-05-05T10:36:01.464Z,101541.94
2023-05-05T10:38:31.293Z,101541.22
2023-05-05T10:41:04.530Z,101543.09
2023-05-05T10:43:32.217Z,101542.66
2023-05-05T10:46:00.036Z,101538.97
2023-05-05T10:48:46.216Z,101542.50
2023-05-05T10:51:42.176Z,101536.22
2023-05-05T10:54:23.451Z,101534.50
2023-05-05T10:56:51.893Z,101529.84
2023-05-05T10:59:52.192Z,101532.09
2023-05-05T11:02:20.786Z,101530.13
2023-05-05T11:05:21.622Z,101535.31
2023-05-05T11:07:51.038Z,101532.53
2023-05-05T11:10:23.900Z,101535.69
2023-05-05T11:13:03.187Z,101533.00
2023-05-05T11:15:30.625Z,101533.53
2023-05-05T11:17:59.664Z,101539.34
2023-05-05T11:20:36.993Z,101526.59
2023-05-05T11:23:04.654Z,101525.75
2023-05-05T11:25:35.538Z,101530.22
2023-05-05T11:28:14.550Z,101521.88
2023-05-05T11:30:57.930Z,101526.38
2023-05-05T11:33:31.085Z,101518.09
2023-05-05T11:36:07.331Z,101511.84
2023-05-05T11:39:05.857Z,101525.91
2023-05-05T11:41:33.064Z,101520.00
2023-05-05T11:44:35.996Z,101518.31
2023-05-05T11:47:06.171Z,101517.81
2023-05-05T11:49:35.172Z,101515.06
2023-05-05T11:52:03.407Z,101504.94
2023-05-05T11:54:31.601Z,101510.97
2023-05-05T11:57:02.202Z,101512.56
2023-05-05T11:59:29.450Z,101511.41
2023-05-05T12:01:56.848Z,101502.56
2023-05-05T12:04:24.469Z,101501.03
2023-05-05T12:06:51.818Z,101496.56
2023-05-05T12:09:24.145Z,101500.25
2023-05-05T12:11:59.844Z,101487.78
2023-05-05T12:14:27.830Z,101485.25
2023-05-05T12:17:11.141Z,101490.66
2023-05-05T12:19:45.520Z,101492.53
2023-05-05T12:22:22.409Z,101490.34
2023-05-05T12:25:01.522Z,101475.31
2023-05-05T12:27:29.139Z,101482.31
2023-05-05T12:29:58.266Z,101484.59
2023-05-05T12:32:28.189Z,101471.78
2023-05-05T12:34:57.644Z,101471.69
2023-05-05T12:37:26.558Z,101462.59
2023-05-05T12:39:56.862Z,101468.09
2023-05-05T12:42:24.360Z,101451.72
2023-05-05T12:44:51.649Z,101451.78
2023-05-05T12:47:32.827Z,101448.31
2023-05-05T12:50:00.930Z,101447.41
2023-05-05T12:52:45.285Z,101444.59
2023-05-05T12:55:13.278Z,101446.91
2023-05-05T12:58:00.666Z,101452.53
2023-05-05T13:00:29.433Z,101446.81
2023-05-05T13:02:57.086Z,101445.03
2023-05-05T13:05:36.516Z,101438.47
2023-05-05T13:08:04.048Z,101444.31
2023-05-05T13:10:31.635Z,101437.38
2023-05-05T13:12:59.070Z,101438.31
2023-05-05T13:15:26.422Z,101436.75
2023-05-05T13:18:03.107Z,101441.00
2023-05-05T13:20:30.334Z,101430.13
2023-05-05T13:22:57.651Z,101428.13
2023-05-05T13:25:24.697Z,101422.63
2023-05-05T13:27:52.207Z,101413.72
2023-05-05T13:30:20.777Z,101416.28
2023-05-05T13:32:48.163Z,101422.09
2023-05-05T13:35:16.565Z,101407.75
2023-05-05T13:37:44.593Z,101405.31
2023-05-05T13:40:13.546Z,101402.97
2023-05-05T13:42:40.719Z,101404.50
2023-05-05T13:45:08.508Z,101406.38
2023-05-05T13:47:35.827Z,101394.84
2023-05-05T13:50:02.968Z,101399.38
2023-05-05T13:52:31.805Z,101406.25
2023-05-05T13:55:01.174Z,101405.25
2023-05-05T13:57:28.413Z,101396.47
2023-05-05T13:59:55.602Z,101387.03
2023-05-05T14:02:22.837Z,101379.34
2023-05-05T14:04:49.953Z,101382.09
2023-05-05T14:07:17.129Z,101380.09
2023-05-05T14:09:44.264Z,101374.84
2023-05-05T14:12:11.288Z,101376.72
2023-05-05T14:14:38.460Z,101375.28
2023-05-05T14:17:06.012Z,101378.63
2023-05-05T14:19:33.607Z,101384.53
2023-05-05T14:22:00.721Z,101384.66
2023-05-05T14:24:27.740Z,101381.28
2023-05-05T14:26:54.845Z,101378.28
2023-05-05T14:29:21.970Z,101384.88
2023-05-05T14:31:48.974Z,101385.44
2023-05-05T14:34:16.162Z,101376.47
2023-05-05T14:36:43.158Z,101379.13
2023-05-05T14:39:10.293Z,101370.72
2023-05-05T14:41:37.423Z,101373.56
2023-05-05T14:44:04.605Z,101367.34
2023-05-05T14:46:32.217Z,101372.41
2023-05-05T14:48:59.408Z,101371.81
2023-05-05T14:51:26.739Z,101364.13
2023-05-05T14:53:53.742Z,101357.72
2023-05-05T14:56:22.899Z,101360.25
2023-05-05T14:58:50.225Z,101362.31
2023-05-05T15:01:17.489Z,101362.06
2023-05-05T15:03:44.734Z,101356.75
2023-05-05T15:06:11.844Z,101351.84
2023-05-05T15:08:41.705Z,101353.22
2023-05-05T15:11:08.872Z,101351.50
2023-05-05T15:13:38.653Z,101351.06
2023-05-05T15:16:06.902Z,101355.88
2023-05-05T15:18:34.424Z,101359.78
2023-05-05T15:21:01.652Z,101353.13
2023-05-05T15:23:30.225Z,101352.44
2023-05-05T15:25:57.326Z,101360.72
2023-05-05T15:28:24.460Z,101374.25
2023-05-05T15:30:51.509Z,101380.91
2023-05-05T15:33:18.731Z,101379.97
2023-05-05T15:35:46.078Z,101381.28
2023-05-05T15:38:13.195Z,101380.31
2023-05-05T15:40:41.421Z,101377.78
2023-05-05T15:43:08.854Z,101373.75
2023-05-05T15:45:36.586Z,101367.56
2023-05-05T15:48:03.723Z,101371.94
2023-05-05T15:50:31.143Z,101365.00
2023-05-05T15:52:58.996Z,101369.28
2023-05-05T15:55:26.547Z,101371.34
2023-05-05T15:57:54.259Z,101370.31
2023-05-05T16:00:21.808Z,101374.69
2023-05-05T16:02:48.910Z,101381.03
2023-05-05T16:05:16.135Z,101371.16
2023-05-05T16:07:43.204Z,101370.50
2023-05-05T16:10:10.845Z,101368.19
2023-05-05T16:12:38.413Z,101367.94
2023-05-05T16:15:06.371Z,101362.31
2023-05-05T16:17:33.581Z,101365.66
2023-05-05T16:20:00.870Z,101370.38
2023-05-05T16:22:27.908Z,101359.91
2023-05-05T16:24:55.083Z,101359.50
2023-05-05T16:27:22.398Z,101361.56
2023-05-05T16:29:49.412Z,101368.13
2023-05-05T16:32:16.584Z,101375.47
2023-05-05T16:34:43.657Z,101368.38
2023-05-05T16:37:11.065Z,101374.34
2023-05-05T16:39:40.432Z,101369.41
2023-05-05T16:42:07.586Z,101374.69
2023-05-05T16:44:34.842Z,101386.63
2023-05-05T16:47:01.851Z,101382.31
2023-05-05T16:49:29.015Z,101384.69
2023-05-05T16:51:57.387Z,101389.47
2023-05-05T16:54:24.738Z,101381.75
2023-05-05T16:56:52.476Z,101381.38
2023-05-05T16:59:19.631Z,101377.88
2023-05-05T17:01:47.089Z,101375.84
2023-05-05T17:04:14.349Z,101384.91
2023-05-05T17:06:41.601Z,101389.44
2023-05-05T17:09:08.879Z,101402.41
2023-05-05T17:11:36.301Z,101391.41
2023-05-05T17:14:03.457Z,101395.66
2023-05-05T17:16:31.344Z,101397.44
2023-05-05T17:18:58.581Z,101395.47
2023-05-05T17:21:27.051Z,101391.47
2023-05-05T17:23:54.223Z,101398.78
2023-05-05T17:26:21.384Z,101392.44
2023-05-05T17:28:48.466Z,101401.22
2023-05-05T17:31:16.202Z,101391.00
2023-05-05T17:33:43.313Z,101387.91
2023-05-05T17:36:10.694Z,101393.44
2023-05-05T17:38:37.925Z,101400.69
2023-05-05T17:41:05.062Z,101390.59
2023-05-05T17:43:32.295Z,101393.84
2023-05-05T17:45:59.393Z,101407.25
2023-05-05T17:48:26.821Z,101405.78
2023-05-05T17:50:54.058Z,101414.41
2023-05-05T17:53:21.653Z,101403.91
2023-05-05T17:55:48.689Z,101408.31
2023-05-05T17:58:15.829Z,101413.16
2023-05-05T18:00:42.830Z,101416.13
2023-05-05T18:03:10.180Z,101407.06
2023-05-05T18:05:37.495Z,101418.09
2023-05-05T18:08:04.836Z,101415.19
2023-05-05T18:10:32.178Z,101415.50
2023-05-05T18:12:59.366Z,101420.22
2023-05-05T18:15:26.639Z,101418.94
2023-05-05T18:17:54.104Z,101421.53
2023-05-05T18:20:21.235Z,101429.66
2023-05-05T18:22:49.112Z,101425.28
2023-05-05T18:25:16.303Z,101428.50
2023-05-05T18:27:44.122Z,101428.50
2023-05-05T18:30:11.841Z,101431.47
2023-05-05T18:32:39.049Z,101438.28
2023-05-05T18:35:07.415Z,101440.91
2023-05-05T18:37:34.841Z,101444.97
2023-05-05T18:40:01.901Z,101450.84
2023-05-05T18:42:29.131Z,101446.50
2023-05-05T18:44:56.201Z,101458.16
2023-05-05T18:47:23.728Z,101457.50
2023-05-05T18:49:50.909Z,101468.22
2023-05-05T18:52:17.957Z,101469.50
2023-05-05T18:54:45.168Z,101470.81
2023-05-05T18:57:12.322Z,101472.91
2023-05-05T18:59:39.358Z,101471.78
2023-05-05T19:02:08.141Z,101469.34
2023-05-05T19:04:38.193Z,101490.06
2023-05-05T19:07:05.514Z,101486.50
2023-05-05T19:09:32.920Z,101482.94
2023-05-05T19:12:00.167Z,101485.69
2023-05-05T19:14:27.354Z,101492.81
2023-05-05T19:16:56.135Z,101488.28
2023-05-05T19:19:23.981Z,101480.50
2023-05-05T19:21:52.244Z,101498.94
2023-05-05T19:24:19.543Z,101494.56
2023-05-05T19:26:46.904Z,101498.94
2023-05-05T19:29:14.286Z,101497.66
2023-05-05T19:31:41.846Z,101500.56
2023-05-05T19:34:09.095Z,101505.44
2023-05-05T19:36:37.384Z,101504.09
2023-05-05T19:39:05.225Z,101504.59
2023-05-05T19:41:35.299Z,101499.25
2023-05-05T19:44:03.209Z,101504.94
2023-05-05T19:46:30.503Z,101500.09
2023-05-05T19:48:58.109Z,101510.75
2023-05-05T19:51:25.780Z,101498.63
2023-05-05T19:53:53.310Z,101503.31
2023-05-05T19:56:22.210Z,101507.69
2023-05-05T19:58:57.853Z,101508.00
2023-05-05T20:01:26.072Z,101509.13
2023-05-05T20:03:54.941Z,101504.44
2023-05-05T20:06:23.207Z,101511.56
2023-05-05T20:08:50.892Z,101513.19
2023-05-05T20:11:18.377Z,101512.03
2023-05-05T20:13:45.806Z,101515.94
2023-05-05T20:16:13.886Z,101518.19
2023-05-05T20:18:41.102Z,101513.31
2023-05-05T20:21:08.309Z,101515.44
2023-05-05T20:23:35.645Z,101513.66
2023-05-05T20:26:02.831Z,101505.75
2023-05-05T20:28:31.889Z,101512.53
2023-05-05T20:31:00.902Z,101511.09
2023-05-05T20:33:29.231Z,101515.75
2023-05-05T20:35:56.818Z,101509.28
2023-05-05T20:38:24.258Z,101511.69
2023-05-05T20:40:52.534Z,101504.91
2023-05-05T20:43:19.859Z,101504.56
2023-05-05T20:45:47.304Z,101500.69
2023-05-05T20:48:14.507Z,101504.91
2023-05-05T20:50:43.231Z,101504.25
2023-05-05T20:53:13.907Z,101496.66
2023-05-05T20:55:41.602Z,101493.41
2023-05-05T20:58:08.734Z,101498.44
2023-05-05T21:00:36.245Z,101490.66
2023-05-05T21:03:04.452Z,101494.72
2023-05-05T21:05:31.837Z,101489.38
2023-05-05T21:08:00.795Z,101499.41
2023-05-05T21:10:33.189Z,101493.94
2023-05-05T21:13:01.995Z,101490.38
2023-05-05T21:15:29.468Z,101491.19
2023-05-05T21:17:57.346Z,101490.38
2023-05-05T21:20:24.583Z,101489.72
2023-05-05T21:22:51.891Z,101482.31
2023-05-05T21:25:21.108Z,101487.63
2023-05-05T21:27:49.119Z,101480.84
2023-05-05T21:30:17.308Z,101474.03
2023-05-05T21:32:45.247Z,101479.53
2023-05-05T21:35:12.526Z,101480.03
2023-05-05T21:37:40.306Z,101483.09
2023-05-05T21:40:13.773Z,101482.28
2023-05-05T21:42:42.548Z,101488.75
2023-05-05T21:45:11.765Z,101476.47
2023-05-05T21:47:39.103Z,101477.09
2023-05-05T21:50:07.034Z,101485.97
2023-05-05T21:52:34.427Z,101473.69
2023-05-05T21:55:01.568Z,101474.50
2023-05-05T21:57:28.694Z,101476.75
2023-05-05T21:59:55.922Z,101476.75
2023-05-05T22:02:23.427Z,101467.38
2023-05-05T22:04:53.744Z,101464.97
2023-05-05T22:07:21.201Z,101466.88
2023-05-05T22:09:48.357Z,101468.03
2023-05-05T22:12:15.751Z,101462.53
2023-05-05T22:14:42.790Z,101455.44
2023-05-05T22:17:09.950Z,101467.53
2023-05-05T22:19:36.990Z,101462.03
2023-05-05T22:22:04.145Z,101466.56
2023-05-05T22:24:31.246Z,101471.06
2023-05-05T22:26:58.489Z,101464.28
2023-05-05T22:29:25.732Z,101465.53
2023-05-05T22:31:52.927Z,101464.38
2023-05-05T22:34:22.169Z,101458.09
2023-05-05T22:36:50.043Z,101453.41
2023-05-05T22:39:18.727Z,101448.53
2023-05-05T22:41:46.279Z,101451.13
2023-05-05T22:44:13.409Z,101451.44
2023-05-05T22:46:41.073Z,101452.72
2023-05-05T22:49:08.886Z,101451.88
2023-05-05T22:51:36.003Z,101447.06
2023-05-05T22:54:03.337Z,101436.91
2023-05-05T22:56:30.383Z,101439.94
2023-05-05T22:58:57.642Z,101446.22
2023-05-05T23:01:24.749Z,101438.00
2023-05-05T23:03:52.022Z,101440.28
2023-05-05T23:06:19.165Z,101447.69
2023-05-05T23:08:46.383Z,101448.31
2023-05-05T23:11:13.594Z,101447.03
2023-05-05T23:13:40.818Z,101441.53
2023-05-05T23:16:08.586Z,101444.28
2023-05-05T23:18:36.505Z,101446.50
2023-05-05T23:21:03.923Z,101435.19
2023-05-05T23:23:32.447Z,101437.47
2023-05-05T23:25:59.507Z,101436.34
2023-05-05T23:28:26.694Z,101435.03
2023-05-05T23:30:53.786Z,101439.19
2023-05-05T23:33:20.976Z,101435.16
2023-05-05T23:35:48.188Z,101431.44
2023-05-05T23:38:15.348Z,101428.34
2023-05-05T23:40:42.454Z,101429.13
2023-05-05T23:43:09.846Z,101427.47
2023-05-05T23:45:36.888Z,101424.75
2023-05-05T23:48:04.365Z,101418.16
2023-05-05T23:50:31.474Z,101413.47
2023-05-05T23:52:58.914Z,101399.75
2023-05-05T23:55:26.148Z,101407.19
2023-05-05T23:57:53.519Z,101404.13
